sensor_id;sensor_type;location;lat;lon;timestamp;temperature;humidity
77467;DHT22;66564;42.482;25.548;2023-05-19T00:01:34;14.44;69.25
77467;DHT22;66564;42.482;25.548;2023-05-19T00:04:02;14.43;69.44
77467;DHT22;66564;42.482;25.548;2023-05-19T00:06:32;14.44;68.47
77467;DHT22;66564;42.482;25.548;2023-05-19T00:09:00;14.43;68.66
77467;DHT22;66564;42.482;25.548;2023-05-19T00:11:26;14.38;69.15
77467;DHT22;66564;42.482;25.548;2023-05-19T00:13:53;14.38;69.25
77467;DHT22;66564;42.482;25.548;2023-05-19T00:16:21;14.38;69.32
77467;DHT22;66564;42.482;25.548;2023-05-19T00:18:47;14.38;69.73
77467;DHT22;66564;42.482;25.548;2023-05-19T00:21:13;14.40;69.15
77467;DHT22;66564;42.482;25.548;2023-05-19T00:23:38;14.40;69.08
77467;DHT22;66564;42.482;25.548;2023-05-19T00:26:04;14.40;69.01
77467;DHT22;66564;42.482;25.548;2023-05-19T00:28:30;14.46;68.94
77467;DHT22;66564;42.482;25.548;2023-05-19T00:30:55;14.46;68.84
77467;DHT22;66564;42.482;25.548;2023-05-19T00:33:21;14.43;68.70
77467;DHT22;66564;42.482;25.548;2023-05-19T00:35:47;14.44;67.77
77467;DHT22;66564;42.482;25.548;2023-05-19T00:38:12;14.47;67.91
77467;DHT22;66564;42.482;25.548;2023-05-19T00:40:37;14.43;68.25
77467;DHT22;66564;42.482;25.548;2023-05-19T00:43:06;14.43;68.32
77467;DHT22;66564;42.482;25.548;2023-05-19T00:45:33;14.43;68.00
77467;DHT22;66564;42.482;25.548;2023-05-19T00:47:58;14.36;68.38
77467;DHT22;66564;42.482;25.548;2023-05-19T00:50:24;14.37;68.67
77467;DHT22;66564;42.482;25.548;2023-05-19T00:52:51;14.33;68.99
77467;DHT22;66564;42.482;25.548;2023-05-19T00:55:18;14.25;69.38
77467;DHT22;66564;42.482;25.548;2023-05-19T00:57:45;14.27;69.25
77467;DHT22;66564;42.482;25.548;2023-05-19T01:00:12;14.29;68.57
77467;DHT22;66564;42.482;25.548;2023-05-19T01:02:38;14.26;69.38
77467;DHT22;66564;42.482;25.548;2023-05-19T01:05:05;14.30;68.94
77467;DHT22;66564;42.482;25.548;2023-05-19T01:07:31;14.25;69.03
77467;DHT22;66564;42.482;25.548;2023-05-19T01:09:57;14.23;68.91
77467;DHT22;66564;42.482;25.548;2023-05-19T01:12:23;14.20;69.21
77467;DHT22;66564;42.482;25.548;2023-05-19T01:14:50;14.20;69.31
77467;DHT22;66564;42.482;25.548;2023-05-19T01:17:26;14.25;69.54
77467;DHT22;66564;42.482;25.548;2023-05-19T01:20:05;14.22;69.83
77467;DHT22;66564;42.482;25.548;2023-05-19T01:22:52;14.23;69.74
77467;DHT22;66564;42.482;25.548;2023-05-19T01:30:59;14.09;70.48
77467;DHT22;66564;42.482;25.548;2023-05-19T01:33:28;14.02;70.56
77467;DHT22;66564;42.482;25.548;2023-05-19T01:35:54;13.95;70.32
77467;DHT22;66564;42.482;25.548;2023-05-19T01:38:21;13.98;70.49
77467;DHT22;66564;42.482;25.548;2023-05-19T01:40:49;13.98;70.26
77467;DHT22;66564;42.482;25.548;2023-05-19T01:43:18;14.03;70.20
77467;DHT22;66564;42.482;25.548;2023-05-19T01:45:45;14.02;70.47
77467;DHT22;66564;42.482;25.548;2023-05-19T01:48:12;14.03;70.01
77467;DHT22;66564;42.482;25.548;2023-05-19T01:50:39;13.99;70.37
77467;DHT22;66564;42.482;25.548;2023-05-19T01:53:05;14.01;70.12
77467;DHT22;66564;42.482;25.548;2023-05-19T01:55:31;14.01;70.10
77467;DHT22;66564;42.482;25.548;2023-05-19T01:58:10;13.99;70.07
77467;DHT22;66564;42.482;25.548;2023-05-19T02:00:47;14.02;70.46
77467;DHT22;66564;42.482;25.548;2023-05-19T02:08:54;14.03;69.87
77467;DHT22;66564;42.482;25.548;2023-05-19T02:11:35;14.05;69.90
77467;DHT22;66564;42.482;25.548;2023-05-19T02:14:15;14.05;70.51
77467;DHT22;66564;42.482;25.548;2023-05-19T02:16:47;14.05;69.80
77467;DHT22;66564;42.482;25.548;2023-05-19T02:21:45;14.03;70.46
77467;DHT22;66564;42.482;25.548;2023-05-19T02:24:11;14.03;70.57
77467;DHT22;66564;42.482;25.548;2023-05-19T02:26:36;14.02;70.30
77467;DHT22;66564;42.482;25.548;2023-05-19T02:29:02;14.01;70.08
77467;DHT22;66564;42.482;25.548;2023-05-19T02:31:28;14.05;69.39
77467;DHT22;66564;42.482;25.548;2023-05-19T02:33:53;14.06;69.35
77467;DHT22;66564;42.482;25.548;2023-05-19T02:36:19;14.10;69.16
77467;DHT22;66564;42.482;25.548;2023-05-19T02:38:44;14.10;69.27
77467;DHT22;66564;42.482;25.548;2023-05-19T02:41:09;14.09;68.99
77467;DHT22;66564;42.482;25.548;2023-05-19T02:43:35;14.09;68.62
77467;DHT22;66564;42.482;25.548;2023-05-19T02:46:01;14.10;68.96
77467;DHT22;66564;42.482;25.548;2023-05-19T02:48:26;14.12;68.76
77467;DHT22;66564;42.482;25.548;2023-05-19T02:50:52;14.06;68.98
77467;DHT22;66564;42.482;25.548;2023-05-19T02:53:17;14.01;69.09
77467;DHT22;66564;42.482;25.548;2023-05-19T02:55:43;14.05;69.28
77467;DHT22;66564;42.482;25.548;2023-05-19T02:58:08;14.03;69.37
77467;DHT22;66564;42.482;25.548;2023-05-19T03:00:33;14.05;69.78
77467;DHT22;66564;42.482;25.548;2023-05-19T03:02:59;14.02;69.56
77467;DHT22;66564;42.482;25.548;2023-05-19T03:05:27;13.98;69.58
77467;DHT22;66564;42.482;25.548;2023-05-19T03:07:54;13.96;69.82
77467;DHT22;66564;42.482;25.548;2023-05-19T03:10:19;13.92;69.77
77467;DHT22;66564;42.482;25.548;2023-05-19T03:12:45;13.89;69.80
77467;DHT22;66564;42.482;25.548;2023-05-19T03:15:11;13.87;69.92
77467;DHT22;66564;42.482;25.548;2023-05-19T03:17:37;13.86;70.18
77467;DHT22;66564;42.482;25.548;2023-05-19T03:20:03;13.87;69.74
77467;DHT22;66564;42.482;25.548;2023-05-19T03:22:30;13.90;70.11
77467;DHT22;66564;42.482;25.548;2023-05-19T03:24:56;13.90;69.90
77467;DHT22;66564;42.482;25.548;2023-05-19T03:27:22;13.87;70.04
77467;DHT22;66564;42.482;25.548;2023-05-19T03:29:48;13.87;70.17
77467;DHT22;66564;42.482;25.548;2023-05-19T03:32:14;13.87;70.08
77467;DHT22;66564;42.482;25.548;2023-05-19T03:34:39;13.85;70.57
77467;DHT22;66564;42.482;25.548;2023-05-19T03:37:05;13.90;70.11
77467;DHT22;66564;42.482;25.548;2023-05-19T03:39:30;13.89;69.94
77467;DHT22;66564;42.482;25.548;2023-05-19T03:41:56;13.86;69.98
77467;DHT22;66564;42.482;25.548;2023-05-19T03:44:22;13.83;70.01
77467;DHT22;66564;42.482;25.548;2023-05-19T03:46:47;13.82;70.10
77467;DHT22;66564;42.482;25.548;2023-05-19T03:49:13;13.81;69.94
77467;DHT22;66564;42.482;25.548;2023-05-19T03:51:39;13.83;70.21
77467;DHT22;66564;42.482;25.548;2023-05-19T03:54:05;13.86;70.30
77467;DHT22;66564;42.482;25.548;2023-05-19T03:56:31;13.89;70.15
77467;DHT22;66564;42.482;25.548;2023-05-19T03:58:56;13.92;70.34
77467;DHT22;66564;42.482;25.548;2023-05-19T04:01:22;13.96;70.71
77467;DHT22;66564;42.482;25.548;2023-05-19T04:03:48;13.99;70.49
77467;DHT22;66564;42.482;25.548;2023-05-19T04:06:13;14.02;70.29
77467;DHT22;66564;42.482;25.548;2023-05-19T04:08:39;14.03;69.79
77467;DHT22;66564;42.482;25.548;2023-05-19T04:11:04;14.10;69.97
77467;DHT22;66564;42.482;25.548;2023-05-19T04:13:33;14.13;70.09
77467;DHT22;66564;42.482;25.548;2023-05-19T04:15:59;14.16;70.29
77467;DHT22;66564;42.482;25.548;2023-05-19T04:18:24;14.22;70.45
77467;DHT22;66564;42.482;25.548;2023-05-19T04:20:50;14.30;70.33
77467;DHT22;66564;42.482;25.548;2023-05-19T04:23:15;14.34;70.37
77467;DHT22;66564;42.482;25.548;2023-05-19T04:25:41;14.38;70.57
77467;DHT22;66564;42.482;25.548;2023-05-19T04:28:06;14.47;70.40
77467;DHT22;66564;42.482;25.548;2023-05-19T04:30:32;14.53;70.61
77467;DHT22;66564;42.482;25.548;2023-05-19T04:32:58;14.59;70.05
77467;DHT22;66564;42.482;25.548;2023-05-19T04:35:25;14.64;69.76
77467;DHT22;66564;42.482;25.548;2023-05-19T04:37:51;14.74;69.94
77467;DHT22;66564;42.482;25.548;2023-05-19T04:40:18;14.85;69.71
77467;DHT22;66564;42.482;25.548;2023-05-19T04:42:45;14.95;69.40
77467;DHT22;66564;42.482;25.548;2023-05-19T04:45:11;15.04;69.27
77467;DHT22;66564;42.482;25.548;2023-05-19T04:47:38;15.10;69.10
77467;DHT22;66564;42.482;25.548;2023-05-19T04:50:04;15.20;69.02
77467;DHT22;66564;42.482;25.548;2023-05-19T04:52:31;15.27;68.71
77467;DHT22;66564;42.482;25.548;2023-05-19T04:54:57;15.31;67.55
77467;DHT22;66564;42.482;25.548;2023-05-19T04:57:22;15.45;67.05
77467;DHT22;66564;42.482;25.548;2023-05-19T04:59:48;15.51;67.10
77467;DHT22;66564;42.482;25.548;2023-05-19T05:02:14;15.65;67.31
77467;DHT22;66564;42.482;25.548;2023-05-19T05:04:39;15.70;66.30
77467;DHT22;66564;42.482;25.548;2023-05-19T05:07:15;15.83;65.21
77467;DHT22;66564;42.482;25.548;2023-05-19T05:09:41;15.93;65.60
77467;DHT22;66564;42.482;25.548;2023-05-19T05:12:07;16.05;64.68
77467;DHT22;66564;42.482;25.548;2023-05-19T05:14:33;16.10;64.63
77467;DHT22;66564;42.482;25.548;2023-05-19T05:17:24;16.20;65.15
77467;DHT22;66564;42.482;25.548;2023-05-19T05:19:50;16.36;64.84
77467;DHT22;66564;42.482;25.548;2023-05-19T05:22:15;16.44;64.44
77467;DHT22;66564;42.482;25.548;2023-05-19T05:24:44;16.56;63.52
77467;DHT22;66564;42.482;25.548;2023-05-19T05:27:10;16.67;64.22
77467;DHT22;66564;42.482;25.548;2023-05-19T05:29:36;16.81;63.87
77467;DHT22;66564;42.482;25.548;2023-05-19T05:32:05;16.91;63.79
77467;DHT22;66564;42.482;25.548;2023-05-19T05:34:31;17.05;63.00
77467;DHT22;66564;42.482;25.548;2023-05-19T05:36:56;17.15;62.66
77467;DHT22;66564;42.482;25.548;2023-05-19T05:39:22;17.26;63.40
77467;DHT22;66564;42.482;25.548;2023-05-19T05:41:47;17.38;63.20
77467;DHT22;66564;42.482;25.548;2023-05-19T05:44:13;17.46;62.73
77467;DHT22;66564;42.482;25.548;2023-05-19T05:46:41;17.58;61.40
77467;DHT22;66564;42.482;25.548;2023-05-19T05:49:09;17.70;61.30
77467;DHT22;66564;42.482;25.548;2023-05-19T05:51:36;17.75;60.98
77467;DHT22;66564;42.482;25.548;2023-05-19T05:54:05;17.86;61.47
77467;DHT22;66564;42.482;25.548;2023-05-19T05:56:32;17.99;61.63
77467;DHT22;66564;42.482;25.548;2023-05-19T05:58:58;18.13;61.90
77467;DHT22;66564;42.482;25.548;2023-05-19T06:01:35;18.24;60.71
77467;DHT22;66564;42.482;25.548;2023-05-19T06:04:03;18.36;61.74
77467;DHT22;66564;42.482;25.548;2023-05-19T06:06:29;18.47;61.21
77467;DHT22;66564;42.482;25.548;2023-05-19T06:08:57;18.60;61.93
77467;DHT22;66564;42.482;25.548;2023-05-19T06:11:24;18.72;60.45
77467;DHT22;66564;42.482;25.548;2023-05-19T06:13:50;18.88;60.50
77467;DHT22;66564;42.482;25.548;2023-05-19T06:16:15;19.01;59.02
77467;DHT22;66564;42.482;25.548;2023-05-19T06:18:44;19.09;59.31
77467;DHT22;66564;42.482;25.548;2023-05-19T06:21:09;19.25;59.43
77467;DHT22;66564;42.482;25.548;2023-05-19T06:23:40;19.39;59.63
77467;DHT22;66564;42.482;25.548;2023-05-19T06:26:06;19.53;58.59
77467;DHT22;66564;42.482;25.548;2023-05-19T06:28:32;19.67;58.72
77467;DHT22;66564;42.482;25.548;2023-05-19T06:30:58;19.83;58.45
77467;DHT22;66564;42.482;25.548;2023-05-19T06:33:24;19.94;58.10
77467;DHT22;66564;42.482;25.548;2023-05-19T06:35:49;20.09;56.53
77467;DHT22;66564;42.482;25.548;2023-05-19T06:38:17;20.30;56.80
77467;DHT22;66564;42.482;25.548;2023-05-19T06:40:43;20.43;55.96
77467;DHT22;66564;42.482;25.548;2023-05-19T06:43:27;20.64;56.55
77467;DHT22;66564;42.482;25.548;2023-05-19T06:45:54;20.84;55.94
77467;DHT22;66564;42.482;25.548;2023-05-19T06:48:20;20.95;53.40
77467;DHT22;66564;42.482;25.548;2023-05-19T06:50:45;21.06;53.80
77467;DHT22;66564;42.482;25.548;2023-05-19T06:53:11;21.21;53.57
77467;DHT22;66564;42.482;25.548;2023-05-19T06:55:39;21.25;52.99
77467;DHT22;66564;42.482;25.548;2023-05-19T06:58:06;21.41;51.28
77467;DHT22;66564;42.482;25.548;2023-05-19T07:00:36;21.52;51.71
77467;DHT22;66564;42.482;25.548;2023-05-19T07:03:02;21.56;49.30
77467;DHT22;66564;42.482;25.548;2023-05-19T07:05:30;21.59;49.30
77467;DHT22;66564;42.482;25.548;2023-05-19T07:07:56;21.69;50.06
77467;DHT22;66564;42.482;25.548;2023-05-19T07:10:21;21.67;50.57
77467;DHT22;66564;42.482;25.548;2023-05-19T07:12:47;21.79;51.91
77467;DHT22;66564;42.482;25.548;2023-05-19T07:15:12;21.93;50.48
77467;DHT22;66564;42.482;25.548;2023-05-19T07:17:38;21.98;49.57
77467;DHT22;66564;42.482;25.548;2023-05-19T07:20:04;22.06;48.68
77467;DHT22;66564;42.482;25.548;2023-05-19T07:22:34;22.00;47.50
77467;DHT22;66564;42.482;25.548;2023-05-19T07:25:00;22.01;47.39
77467;DHT22;66564;42.482;25.548;2023-05-19T07:27:25;22.08;49.34
77467;DHT22;66564;42.482;25.548;2023-05-19T07:29:51;22.20;47.99
77467;DHT22;66564;42.482;25.548;2023-05-19T07:32:17;22.13;48.25
77467;DHT22;66564;42.482;25.548;2023-05-19T07:34:42;22.18;48.59
77467;DHT22;66564;42.482;25.548;2023-05-19T07:37:08;22.30;48.36
77467;DHT22;66564;42.482;25.548;2023-05-19T07:39:34;22.44;48.30
77467;DHT22;66564;42.482;25.548;2023-05-19T07:42:00;22.60;48.91
77467;DHT22;66564;42.482;25.548;2023-05-19T07:44:26;22.65;48.07
77467;DHT22;66564;42.482;25.548;2023-05-19T07:46:52;22.82;48.57
77467;DHT22;66564;42.482;25.548;2023-05-19T07:49:18;22.88;47.27
77467;DHT22;66564;42.482;25.548;2023-05-19T07:51:43;22.92;47.29
77467;DHT22;66564;42.482;25.548;2023-05-19T07:54:09;22.81;46.61
77467;DHT22;66564;42.482;25.548;2023-05-19T07:56:34;22.98;47.88
77467;DHT22;66564;42.482;25.548;2023-05-19T07:59:00;23.18;47.76
77467;DHT22;66564;42.482;25.548;2023-05-19T08:01:25;23.19;45.33
77467;DHT22;66564;42.482;25.548;2023-05-19T08:03:51;23.30;46.79
77467;DHT22;66564;42.482;25.548;2023-05-19T08:06:16;23.29;46.25
77467;DHT22;66564;42.482;25.548;2023-05-19T08:08:42;23.20;45.41
77467;DHT22;66564;42.482;25.548;2023-05-19T08:11:07;23.30;45.81
77467;DHT22;66564;42.482;25.548;2023-05-19T08:13:33;23.41;45.31
77467;DHT22;66564;42.482;25.548;2023-05-19T08:16:22;23.43;43.49
77467;DHT22;66564;42.482;25.548;2023-05-19T08:18:48;23.55;46.22
77467;DHT22;66564;42.482;25.548;2023-05-19T08:21:14;23.67;45.31
77467;DHT22;66564;42.482;25.548;2023-05-19T08:23:39;23.78;45.12
77467;DHT22;66564;42.482;25.548;2023-05-19T08:26:05;23.77;45.18
77467;DHT22;66564;42.482;25.548;2023-05-19T08:28:31;23.81;44.04
77467;DHT22;66564;42.482;25.548;2023-05-19T08:30:56;24.00;46.11
77467;DHT22;66564;42.482;25.548;2023-05-19T08:33:21;24.11;43.55
77467;DHT22;66564;42.482;25.548;2023-05-19T08:35:47;24.06;43.79
77467;DHT22;66564;42.482;25.548;2023-05-19T08:38:13;24.18;41.96
77467;DHT22;66564;42.482;25.548;2023-05-19T08:40:41;24.16;42.60
77467;DHT22;66564;42.482;25.548;2023-05-19T08:43:07;24.10;41.31
77467;DHT22;66564;42.482;25.548;2023-05-19T08:45:36;24.10;43.27
77467;DHT22;66564;42.482;25.548;2023-05-19T08:48:03;24.24;42.30
77467;DHT22;66564;42.482;25.548;2023-05-19T08:50:29;24.44;44.33
77467;DHT22;66564;42.482;25.548;2023-05-19T08:53:23;24.50;41.97
77467;DHT22;66564;42.482;25.548;2023-05-19T08:56:00;24.61;44.53
77467;DHT22;66564;42.482;25.548;2023-05-19T08:58:26;24.72;41.49
77467;DHT22;66564;42.482;25.548;2023-05-19T09:00:52;24.75;43.12
77467;DHT22;66564;42.482;25.548;2023-05-19T09:03:23;24.82;42.58
77467;DHT22;66564;42.482;25.548;2023-05-19T09:05:51;25.01;42.05
77467;DHT22;66564;42.482;25.548;2023-05-19T09:08:17;25.14;39.72
77467;DHT22;66564;42.482;25.548;2023-05-19T09:10:43;25.14;42.04
77467;DHT22;66564;42.482;25.548;2023-05-19T09:13:08;24.95;41.05
77467;DHT22;66564;42.482;25.548;2023-05-19T09:15:34;25.19;41.82
77467;DHT22;66564;42.482;25.548;2023-05-19T09:20:31;25.57;39.70
77467;DHT22;66564;42.482;25.548;2023-05-19T09:22:58;25.67;41.22
77467;DHT22;66564;42.482;25.548;2023-05-19T09:25:24;25.51;39.43
77467;DHT22;66564;42.482;25.548;2023-05-19T09:27:53;25.80;39.32
77467;DHT22;66564;42.482;25.548;2023-05-19T09:30:22;25.67;38.00
77467;DHT22;66564;42.482;25.548;2023-05-19T09:32:48;25.62;38.61
77467;DHT22;66564;42.482;25.548;2023-05-19T09:35:13;25.70;40.25
77467;DHT22;66564;42.482;25.548;2023-05-19T09:37:44;25.86;40.57
77467;DHT22;66564;42.482;25.548;2023-05-19T09:40:13;25.93;38.23
77467;DHT22;66564;42.482;25.548;2023-05-19T09:42:40;25.93;38.49
77467;DHT22;66564;42.482;25.548;2023-05-19T09:45:07;25.89;37.54
77467;DHT22;66564;42.482;25.548;2023-05-19T09:47:40;25.57;39.74
77467;DHT22;66564;42.482;25.548;2023-05-19T09:50:09;25.56;39.28
77467;DHT22;66564;42.482;25.548;2023-05-19T09:52:41;25.73;39.92
77467;DHT22;66564;42.482;25.548;2023-05-19T09:55:11;25.77;39.90
77467;DHT22;66564;42.482;25.548;2023-05-19T09:57:38;25.94;37.79
77467;DHT22;66564;42.482;25.548;2023-05-19T10:02:42;26.07;39.71
77467;DHT22;66564;42.482;25.548;2023-05-19T10:05:18;26.17;38.43
77467;DHT22;66564;42.482;25.548;2023-05-19T10:07:45;26.20;37.86
77467;DHT22;66564;42.482;25.548;2023-05-19T10:10:14;26.28;36.42
77467;DHT22;66564;42.482;25.548;2023-05-19T10:12:41;26.27;36.70
77467;DHT22;66564;42.482;25.548;2023-05-19T10:15:08;26.21;36.26
77467;DHT22;66564;42.482;25.548;2023-05-19T10:17:37;26.17;35.91
77467;DHT22;66564;42.482;25.548;2023-05-19T10:20:02;25.76;37.61
77467;DHT22;66564;42.482;25.548;2023-05-19T10:22:31;25.67;37.76
77467;DHT22;66564;42.482;25.548;2023-05-19T10:24:57;25.57;40.60
77467;DHT22;66564;42.482;25.548;2023-05-19T10:27:24;25.70;38.74
77467;DHT22;66564;42.482;25.548;2023-05-19T10:29:54;25.89;40.52
77467;DHT22;66564;42.482;25.548;2023-05-19T10:32:29;25.93;37.90
77467;DHT22;66564;42.482;25.548;2023-05-19T10:35:08;26.03;38.00
77467;DHT22;66564;42.482;25.548;2023-05-19T10:37:38;26.13;38.98
77467;DHT22;66564;42.482;25.548;2023-05-19T10:40:11;26.24;39.37
77467;DHT22;66564;42.482;25.548;2023-05-19T10:42:56;26.37;38.69
77467;DHT22;66564;42.482;25.548;2023-05-19T10:45:29;25.97;36.49
77467;DHT22;66564;42.482;25.548;2023-05-19T10:48:29;26.03;37.83
77467;DHT22;66564;42.482;25.548;2023-05-19T10:50:57;26.10;36.69
77467;DHT22;66564;42.482;25.548;2023-05-19T10:53:31;26.08;37.79
77467;DHT22;66564;42.482;25.548;2023-05-19T10:55:57;25.69;36.98
77467;DHT22;66564;42.482;25.548;2023-05-19T11:01:14;25.93;36.95
77467;DHT22;66564;42.482;25.548;2023-05-19T11:04:07;26.10;36.77
77467;DHT22;66564;42.482;25.548;2023-05-19T11:06:36;26.27;37.06
77467;DHT22;66564;42.482;25.548;2023-05-19T11:09:12;26.48;37.19
77467;DHT22;66564;42.482;25.548;2023-05-19T11:11:53;26.67;37.05
77467;DHT22;66564;42.482;25.548;2023-05-19T11:14:26;26.72;35.30
77467;DHT22;66564;42.482;25.548;2023-05-19T11:16:55;26.67;35.55
77467;DHT22;66564;42.482;25.548;2023-05-19T11:19:26;26.54;35.52
77467;DHT22;66564;42.482;25.548;2023-05-19T11:21:53;26.52;35.46
77467;DHT22;66564;42.482;25.548;2023-05-19T11:24:47;26.65;35.68
77467;DHT22;66564;42.482;25.548;2023-05-19T11:30:08;27.02;35.92
77467;DHT22;66564;42.482;25.548;2023-05-19T11:32:39;27.09;33.67
77467;DHT22;66564;42.482;25.548;2023-05-19T11:35:12;27.08;34.79
77467;DHT22;66564;42.482;25.548;2023-05-19T11:37:38;26.96;34.73
77467;DHT22;66564;42.482;25.548;2023-05-19T11:40:12;26.95;33.99
77467;DHT22;66564;42.482;25.548;2023-05-19T11:42:40;26.94;33.73
77467;DHT22;66564;42.482;25.548;2023-05-19T11:45:09;26.86;36.15
77467;DHT22;66564;42.482;25.548;2023-05-19T11:47:34;26.88;34.46
77467;DHT22;66564;42.482;25.548;2023-05-19T11:50:03;26.98;34.69
77467;DHT22;66564;42.482;25.548;2023-05-19T11:52:29;26.85;32.38
77467;DHT22;66564;42.482;25.548;2023-05-19T11:54:59;26.89;33.66
77467;DHT22;66564;42.482;25.548;2023-05-19T11:57:25;26.89;35.57
77467;DHT22;66564;42.482;25.548;2023-05-19T11:59:51;26.89;33.29
77467;DHT22;66564;42.482;25.548;2023-05-19T12:02:21;26.78;34.28
77467;DHT22;66564;42.482;25.548;2023-05-19T12:04:49;26.94;33.43
77467;DHT22;66564;42.482;25.548;2023-05-19T12:07:16;26.82;33.71
77467;DHT22;66564;42.482;25.548;2023-05-19T12:09:44;26.89;33.84
77467;DHT22;66564;42.482;25.548;2023-05-19T12:12:15;26.92;33.66
77467;DHT22;66564;42.482;25.548;2023-05-19T12:14:41;26.79;34.02
77467;DHT22;66564;42.482;25.548;2023-05-19T12:17:15;26.71;34.06
77467;DHT22;66564;42.482;25.548;2023-05-19T12:19:44;26.56;35.24
77467;DHT22;66564;42.482;25.548;2023-05-19T12:22:11;26.33;34.16
77467;DHT22;66564;42.482;25.548;2023-05-19T12:24:39;25.84;34.94
77467;DHT22;66564;42.482;25.548;2023-05-19T12:27:09;26.13;37.51
77467;DHT22;66564;42.482;25.548;2023-05-19T12:29:37;26.33;36.33
77467;DHT22;66564;42.482;25.548;2023-05-19T12:32:03;26.41;36.10
77467;DHT22;66564;42.482;25.548;2023-05-19T12:34:29;26.47;36.19
77467;DHT22;66564;42.482;25.548;2023-05-19T12:36:54;26.56;36.56
77467;DHT22;66564;42.482;25.548;2023-05-19T12:39:20;26.59;35.63
77467;DHT22;66564;42.482;25.548;2023-05-19T12:41:47;26.56;35.10
77467;DHT22;66564;42.482;25.548;2023-05-19T12:44:16;26.52;35.35
77467;DHT22;66564;42.482;25.548;2023-05-19T12:46:45;26.34;35.67
77467;DHT22;66564;42.482;25.548;2023-05-19T12:49:10;26.14;35.99
77467;DHT22;66564;42.482;25.548;2023-05-19T12:51:36;26.10;36.63
77467;DHT22;66564;42.482;25.548;2023-05-19T12:54:02;25.98;37.03
77467;DHT22;66564;42.482;25.548;2023-05-19T12:56:29;24.72;39.00
77467;DHT22;66564;42.482;25.548;2023-05-19T12:58:59;24.51;38.22
77467;DHT22;66564;42.482;25.548;2023-05-19T13:01:27;23.29;41.28
77467;DHT22;66564;42.482;25.548;2023-05-19T13:03:53;23.19;42.58
77467;DHT22;66564;42.482;25.548;2023-05-19T13:06:19;22.16;43.71
77467;DHT22;66564;42.482;25.548;2023-05-19T13:08:45;22.51;43.56
77467;DHT22;66564;42.482;25.548;2023-05-19T13:11:11;22.43;44.27
77467;DHT22;66564;42.482;25.548;2023-05-19T13:13:37;22.41;44.31
77467;DHT22;66564;42.482;25.548;2023-05-19T13:16:08;22.38;44.68
77467;DHT22;66564;42.482;25.548;2023-05-19T13:18:34;22.20;45.26
77467;DHT22;66564;42.482;25.548;2023-05-19T13:21:01;21.86;46.25
77467;DHT22;66564;42.482;25.548;2023-05-19T13:23:28;21.12;47.31
77467;DHT22;66564;42.482;25.548;2023-05-19T13:25:53;20.71;49.34
77467;DHT22;66564;42.482;25.548;2023-05-19T13:28:19;20.69;48.89
77467;DHT22;66564;42.482;25.548;2023-05-19T13:30:44;20.71;49.33
77467;DHT22;66564;42.482;25.548;2023-05-19T13:33:10;20.57;49.63
77467;DHT22;66564;42.482;25.548;2023-05-19T13:35:36;20.69;50.13
77467;DHT22;66564;42.482;25.548;2023-05-19T13:38:06;20.18;50.59
77467;DHT22;66564;42.482;25.548;2023-05-19T13:40:35;20.48;50.50
77467;DHT22;66564;42.482;25.548;2023-05-19T13:43:02;20.67;50.50
77467;DHT22;66564;42.482;25.548;2023-05-19T13:45:27;20.34;49.57
77467;DHT22;66564;42.482;25.548;2023-05-19T13:47:53;19.89;49.97
77467;DHT22;66564;42.482;25.548;2023-05-19T13:50:19;20.01;50.92
77467;DHT22;66564;42.482;25.548;2023-05-19T13:52:44;19.93;50.77
77467;DHT22;66564;42.482;25.548;2023-05-19T13:55:10;19.82;51.49
77467;DHT22;66564;42.482;25.548;2023-05-19T13:57:36;19.73;51.72
77467;DHT22;66564;42.482;25.548;2023-05-19T14:00:02;19.72;52.17
77467;DHT22;66564;42.482;25.548;2023-05-19T14:02:32;19.63;52.49
77467;DHT22;66564;42.482;25.548;2023-05-19T14:04:57;19.50;53.27
77467;DHT22;66564;42.482;25.548;2023-05-19T14:07:23;19.43;54.87
77467;DHT22;66564;42.482;25.548;2023-05-19T14:09:49;19.42;56.05
77467;DHT22;66564;42.482;25.548;2023-05-19T14:12:16;19.32;57.96
77467;DHT22;66564;42.482;25.548;2023-05-19T14:14:42;19.26;58.84
77467;DHT22;66564;42.482;25.548;2023-05-19T14:17:07;19.23;59.34
77467;DHT22;66564;42.482;25.548;2023-05-19T14:19:33;19.26;61.09
77467;DHT22;66564;42.482;25.548;2023-05-19T14:21:59;19.22;61.64
77467;DHT22;66564;42.482;25.548;2023-05-19T14:24:25;19.18;61.62
77467;DHT22;66564;42.482;25.548;2023-05-19T14:26:50;19.05;61.28
77467;DHT22;66564;42.482;25.548;2023-05-19T14:29:18;18.97;61.24
77467;DHT22;66564;42.482;25.548;2023-05-19T14:31:43;18.91;63.69
77467;DHT22;66564;42.482;25.548;2023-05-19T14:34:09;18.84;62.72
77467;DHT22;66564;42.482;25.548;2023-05-19T14:36:34;18.78;63.30
77467;DHT22;66564;42.482;25.548;2023-05-19T14:39:00;18.71;64.32
77467;DHT22;66564;42.482;25.548;2023-05-19T14:41:26;18.67;62.58
77467;DHT22;66564;42.482;25.548;2023-05-19T14:47:15;18.54;62.20
77467;DHT22;66564;42.482;25.548;2023-05-19T14:49:43;18.50;63.03
77467;DHT22;66564;42.482;25.548;2023-05-19T14:52:09;18.48;62.23
77467;DHT22;66564;42.482;25.548;2023-05-19T14:54:35;18.44;62.88
77467;DHT22;66564;42.482;25.548;2023-05-19T14:57:00;18.40;63.92
77467;DHT22;66564;42.482;25.548;2023-05-19T14:59:27;18.40;65.53
77467;DHT22;66564;42.482;25.548;2023-05-19T15:01:54;18.38;64.68
77467;DHT22;66564;42.482;25.548;2023-05-19T15:04:19;18.07;64.66
77467;DHT22;66564;42.482;25.548;2023-05-19T15:06:45;17.96;63.39
77467;DHT22;66564;42.482;25.548;2023-05-19T15:09:11;17.38;66.73
77467;DHT22;66564;42.482;25.548;2023-05-19T15:11:38;17.46;67.69
77467;DHT22;66564;42.482;25.548;2023-05-19T15:14:04;17.62;66.66
77467;DHT22;66564;42.482;25.548;2023-05-19T15:16:30;17.68;65.95
77467;DHT22;66564;42.482;25.548;2023-05-19T15:18:55;17.73;66.15
77467;DHT22;66564;42.482;25.548;2023-05-19T15:21:21;17.78;65.92
77467;DHT22;66564;42.482;25.548;2023-05-19T15:23:47;17.78;64.87
77467;DHT22;66564;42.482;25.548;2023-05-19T15:26:12;17.79;64.03
77467;DHT22;66564;42.482;25.548;2023-05-19T15:28:38;17.72;64.34
77467;DHT22;66564;42.482;25.548;2023-05-19T15:31:04;17.76;63.56
77467;DHT22;66564;42.482;25.548;2023-05-19T15:33:29;17.73;64.37
77467;DHT22;66564;42.482;25.548;2023-05-19T15:35:56;17.73;63.77
77467;DHT22;66564;42.482;25.548;2023-05-19T15:38:22;17.75;63.69
77467;DHT22;66564;42.482;25.548;2023-05-19T15:40:49;17.76;63.76
77467;DHT22;66564;42.482;25.548;2023-05-19T15:43:15;17.75;64.17
77467;DHT22;66564;42.482;25.548;2023-05-19T15:45:41;17.70;63.60